createdAt,value
2022-09-21T00:00:55.255Z,1.07
2022-09-21T00:03:22.643Z,1.00
2022-09-21T00:05:49.963Z,0.90
2022-09-21T00:08:17.320Z,0.90
2022-09-21T00:10:50.283Z,0.83
2022-09-21T00:13:19.819Z,0.80
2022-09-21T00:15:47.447Z,1.07
2022-09-21T00:18:14.748Z,0.93
2022-09-21T00:20:45.503Z,1.00
2022-09-21T00:23:12.876Z,0.80
2022-09-21T00:25:40.340Z,1.10
2022-09-21T00:28:07.641Z,0.80
2022-09-21T00:30:34.928Z,0.73
2022-09-21T00:33:02.278Z,1.03
2022-09-21T00:35:29.677Z,1.03
2022-09-21T00:37:57.009Z,1.00
2022-09-21T00:40:24.357Z,0.90
2022-09-21T00:42:51.806Z,1.20
2022-09-21T00:45:22.029Z,0.90
2022-09-21T00:47:53.507Z,1.00
2022-09-21T00:50:23.147Z,0.70
2022-09-21T00:52:52.148Z,1.00
2022-09-21T00:55:25.081Z,0.93
2022-09-21T00:57:54.823Z,0.93
2022-09-21T01:00:24.965Z,1.00
2022-09-21T01:02:52.433Z,1.00
2022-09-21T01:05:19.799Z,1.00
2022-09-21T01:07:47.982Z,1.00
2022-09-21T01:10:18.364Z,0.93
2022-09-21T01:12:45.626Z,1.20
2022-09-21T01:15:33.272Z,0.87
2022-09-21T01:18:12.383Z,1.10
2022-09-21T01:21:05.419Z,0.80
2022-09-21T01:23:43.503Z,1.20
2022-09-21T01:26:25.744Z,1.00
2022-09-21T01:28:55.911Z,1.03
2022-09-21T01:31:26.181Z,1.00
2022-09-21T01:33:55.163Z,1.00
2022-09-21T01:36:25.726Z,0.70
2022-09-21T01:38:55.508Z,0.90
2022-09-21T01:41:26.104Z,0.87
2022-09-21T01:43:58.528Z,1.07
2022-09-21T01:46:28.237Z,1.00
2022-09-21T01:48:58.506Z,1.00
2022-09-21T01:51:27.583Z,1.00
2022-09-21T01:54:00.481Z,0.87
2022-09-21T01:56:34.048Z,1.10
2022-09-21T01:59:04.350Z,0.90
2022-09-21T02:01:33.325Z,1.00
2022-09-21T02:04:03.172Z,1.00
2022-09-21T02:06:31.270Z,1.00
2022-09-21T02:08:58.673Z,1.17
2022-09-21T02:11:26.056Z,1.10
2022-09-21T02:13:54.717Z,0.83
2022-09-21T02:16:28.863Z,1.30
2022-09-21T02:19:09.519Z,0.90
2022-09-21T02:21:45.986Z,1.10
2022-09-21T02:24:33.674Z,0.90
2022-09-21T02:27:10.582Z,0.90
2022-09-21T02:29:50.053Z,1.30
2022-09-21T02:32:20.611Z,0.80
2022-09-21T02:34:51.528Z,1.00
2022-09-21T02:37:34.234Z,1.00
2022-09-21T02:40:14.418Z,1.10
2022-09-21T02:42:43.957Z,1.10
2022-09-21T02:45:14.773Z,0.80
2022-09-21T02:47:51.194Z,0.90
2022-09-21T02:50:21.578Z,0.83
2022-09-21T02:52:48.987Z,1.20
2022-09-21T02:55:17.637Z,1.13
2022-09-21T02:57:46.963Z,1.20
2022-09-21T03:00:15.604Z,0.80
2022-09-21T03:02:44.479Z,0.80
2022-09-21T03:05:12.809Z,0.90
2022-09-21T03:07:40.300Z,1.00
2022-09-21T03:10:09.418Z,0.73
2022-09-21T03:12:37.328Z,0.90
2022-09-21T03:15:05.562Z,1.27
2022-09-21T03:17:32.903Z,1.10
2022-09-21T03:20:00.246Z,1.10
2022-09-21T03:22:27.684Z,1.10
2022-09-21T03:24:57.642Z,0.77
2022-09-21T03:27:25.012Z,1.10
2022-09-21T03:29:52.755Z,1.00
2022-09-21T03:32:20.017Z,0.90
2022-09-21T03:34:47.382Z,0.90
2022-09-21T03:37:14.751Z,1.30
2022-09-21T03:39:42.122Z,1.47
2022-09-21T03:42:10.244Z,0.90
2022-09-21T03:44:37.704Z,0.83
2022-09-21T03:47:06.797Z,0.80
2022-09-21T03:49:35.188Z,1.00
2022-09-21T03:52:02.885Z,1.00
2022-09-21T03:54:30.233Z,1.30
2022-09-21T03:56:57.652Z,1.00
2022-09-21T03:59:25.087Z,1.17
2022-09-21T04:01:52.445Z,1.20
2022-09-21T04:04:20.471Z,1.17
2022-09-21T04:06:47.817Z,1.27
2022-09-21T04:09:18.091Z,1.40
2022-09-21T04:11:48.409Z,1.43
2022-09-21T04:14:15.742Z,1.23
2022-09-21T04:16:43.170Z,1.50
2022-09-21T04:19:10.507Z,1.27
2022-09-21T04:21:38.071Z,1.20
2022-09-21T04:24:05.479Z,1.33
2022-09-21T04:26:33.952Z,1.30
2022-09-21T04:29:01.713Z,1.10
2022-09-21T04:31:29.715Z,1.00
2022-09-21T04:33:57.843Z,0.97
2022-09-21T04:36:29.012Z,1.30
2022-09-21T04:38:58.824Z,0.80
2022-09-21T04:41:26.219Z,0.97
2022-09-21T04:43:53.777Z,1.10
2022-09-21T04:46:22.145Z,1.10
2022-09-21T04:48:50.047Z,1.10
2022-09-21T04:51:17.834Z,1.20
2022-09-21T04:53:45.233Z,1.10
2022-09-21T04:56:14.888Z,1.07
2022-09-21T04:58:42.136Z,1.00
2022-09-21T05:01:09.579Z,1.03
2022-09-21T05:03:36.964Z,1.33
2022-09-21T05:06:04.534Z,1.43
2022-09-21T05:08:50.685Z,0.87
2022-09-21T05:11:19.212Z,1.13
2022-09-21T05:13:47.077Z,1.03
2022-09-21T05:16:14.950Z,1.40
2022-09-21T05:18:42.322Z,1.00
2022-09-21T05:21:10.817Z,1.30
2022-09-21T05:23:38.127Z,2.40
2022-09-21T05:26:05.744Z,1.50
2022-09-21T05:28:37.737Z,1.10
2022-09-21T05:31:17.990Z,1.50
2022-09-21T05:33:51.507Z,1.80
2022-09-21T05:36:35.793Z,1.80
2022-09-21T05:39:03.321Z,1.10
2022-09-21T05:41:30.998Z,1.10
2022-09-21T05:43:58.511Z,1.20
2022-09-21T05:46:56.375Z,1.27
2022-09-21T05:49:31.815Z,1.00
2022-09-21T05:52:22.342Z,1.23
2022-09-21T05:54:57.969Z,1.50
2022-09-21T05:57:29.973Z,1.40
2022-09-21T06:00:13.002Z,1.40
2022-09-21T06:02:58.891Z,1.37
2022-09-21T06:05:26.456Z,1.40
2022-09-21T06:07:53.798Z,1.07
2022-09-21T06:10:21.262Z,1.20
2022-09-21T06:12:48.685Z,1.13
2022-09-21T06:15:16.208Z,1.30
2022-09-21T06:17:43.634Z,1.43
2022-09-21T06:20:11.195Z,1.30
2022-09-21T06:22:38.531Z,1.40
2022-09-21T06:25:06.144Z,1.40
2022-09-21T06:27:33.575Z,2.00
2022-09-21T06:30:00.942Z,1.30
2022-09-21T06:32:32.442Z,1.63
2022-09-21T06:34:59.783Z,1.40
2022-09-21T06:37:27.084Z,1.70
2022-09-21T06:39:54.551Z,0.90
2022-09-21T06:42:21.821Z,1.37
2022-09-21T06:44:49.188Z,0.90
2022-09-21T06:47:16.509Z,1.30
2022-09-21T06:49:43.831Z,1.20
2022-09-21T06:52:11.212Z,1.40
2022-09-21T06:54:39.737Z,1.20
2022-09-21T06:57:07.178Z,1.13
2022-09-21T06:59:34.562Z,1.30
2022-09-21T07:02:02.031Z,1.10
2022-09-21T07:04:31.937Z,1.20
2022-09-21T07:07:02.402Z,1.40
2022-09-21T07:12:18.654Z,1.10
2022-09-21T07:14:46.409Z,1.00
2022-09-21T07:17:16.087Z,0.80
2022-09-21T07:19:43.587Z,1.10
2022-09-21T07:22:11.004Z,1.10
2022-09-21T07:24:38.367Z,1.10
2022-09-21T07:27:05.851Z,0.97
2022-09-21T07:29:33.322Z,1.10
2022-09-21T07:32:00.728Z,1.10
2022-09-21T07:34:28.181Z,1.30
2022-09-21T07:36:55.583Z,0.80
2022-09-21T07:39:22.927Z,1.23
2022-09-21T07:41:50.386Z,1.43
2022-09-21T07:44:17.867Z,1.30
2022-09-21T07:46:48.268Z,0.80
2022-09-21T07:49:15.818Z,1.00
2022-09-21T07:51:43.268Z,1.33
2022-09-21T07:54:11.514Z,1.10
2022-09-21T07:56:38.954Z,1.20
2022-09-21T07:59:06.463Z,1.00
2022-09-21T08:01:38.354Z,1.40
2022-09-21T08:04:06.947Z,1.20
2022-09-21T08:06:35.426Z,1.20
2022-09-21T08:09:04.031Z,1.20
2022-09-21T08:11:33.334Z,1.27
2022-09-21T08:14:02.191Z,1.20
2022-09-21T08:16:30.304Z,1.50
2022-09-21T08:18:57.987Z,1.70
2022-09-21T08:21:25.423Z,1.80
2022-09-21T08:23:52.776Z,2.77
2022-09-21T08:26:20.888Z,1.40
2022-09-21T08:28:49.991Z,1.20
2022-09-21T08:31:19.816Z,1.13
2022-09-21T08:33:50.716Z,0.87
2022-09-21T08:36:18.769Z,1.00
2022-09-21T08:38:46.536Z,2.00
2022-09-21T08:41:21.593Z,1.10
2022-09-21T08:44:09.243Z,1.20
2022-09-21T08:46:37.948Z,1.10
2022-09-21T08:49:12.704Z,1.10
2022-09-21T08:51:45.071Z,1.00
2022-09-21T08:54:21.953Z,1.10
2022-09-21T08:57:04.551Z,0.80
2022-09-21T08:59:34.647Z,1.00
2022-09-21T09:02:09.738Z,0.70
2022-09-21T09:04:45.132Z,1.03
2022-09-21T09:07:18.236Z,1.50
2022-09-21T09:10:21.165Z,1.40
2022-09-21T09:12:48.574Z,0.97
2022-09-21T09:15:25.107Z,1.17
2022-09-21T09:17:55.188Z,1.30
2022-09-21T09:20:22.661Z,1.10
2022-09-21T09:23:08.417Z,0.90
2022-09-21T09:25:40.485Z,1.00
2022-09-21T09:28:16.786Z,1.10
2022-09-21T09:30:44.547Z,0.77
2022-09-21T09:33:14.904Z,0.90
2022-09-21T09:35:53.975Z,0.90
2022-09-21T09:38:34.980Z,0.70
2022-09-21T09:41:11.544Z,0.73
2022-09-21T09:43:46.779Z,0.80
2022-09-21T09:46:21.495Z,1.10
2022-09-21T09:48:54.210Z,0.90
2022-09-21T09:51:21.820Z,0.80
2022-09-21T09:53:50.154Z,0.80
2022-09-21T09:56:19.089Z,1.00
2022-09-21T09:58:53.489Z,0.70
2022-09-21T10:01:39.729Z,0.70
2022-09-21T10:04:18.119Z,0.93
2022-09-21T10:06:46.994Z,0.82
2022-09-21T10:09:20.432Z,0.60
2022-09-21T10:11:48.714Z,1.30
2022-09-21T10:14:19.664Z,0.80
2022-09-21T10:16:47.597Z,0.80
2022-09-21T10:19:22.664Z,1.05
2022-09-21T10:21:53.146Z,0.97
2022-09-21T10:24:25.097Z,1.00
2022-09-21T10:26:56.970Z,0.93
2022-09-21T10:29:25.560Z,1.00
2022-09-21T10:31:56.719Z,1.33
2022-09-21T10:34:24.598Z,1.27
2022-09-21T10:36:54.572Z,1.20
2022-09-21T10:39:22.032Z,1.50
2022-09-21T10:42:03.796Z,1.13
2022-09-21T10:44:37.994Z,1.35
2022-09-21T10:47:17.182Z,1.35
2022-09-21T10:49:55.455Z,1.08
2022-09-21T10:52:24.547Z,1.20
2022-09-21T10:54:55.224Z,1.35
2022-09-21T10:57:23.681Z,1.45
2022-09-21T10:59:51.420Z,1.45
2022-09-21T11:02:34.636Z,1.42
2022-09-21T11:05:07.708Z,1.27
2022-09-21T11:07:38.354Z,1.20
2022-09-21T11:10:24.338Z,1.20
2022-09-21T11:13:04.315Z,1.38
2022-09-21T11:15:37.674Z,1.55
2022-09-21T11:18:08.109Z,1.42
2022-09-21T11:20:53.984Z,1.13
2022-09-21T11:23:27.500Z,0.90
2022-09-21T11:26:18.229Z,1.75
2022-09-21T11:29:01.797Z,1.25
2022-09-21T11:31:41.766Z,1.10
2022-09-21T11:34:16.312Z,1.10
2022-09-21T11:36:49.464Z,1.20
2022-09-21T11:39:16.856Z,1.20
2022-09-21T11:42:11.232Z,1.10
2022-09-21T11:44:46.286Z,1.20
2022-09-21T11:47:31.800Z,1.13
2022-09-21T11:50:26.316Z,1.17
2022-09-21T11:52:59.437Z,1.10
2022-09-21T11:55:44.653Z,0.85
2022-09-21T11:58:24.732Z,1.13
2022-09-21T12:00:58.205Z,1.05
2022-09-21T12:03:41.796Z,0.98
2022-09-21T12:06:12.944Z,1.27
2022-09-21T12:08:46.224Z,1.05
2022-09-21T12:11:16.597Z,1.08
2022-09-21T12:13:48.262Z,1.20
2022-09-21T12:16:41.865Z,1.00
2022-09-21T12:19:28.982Z,1.23
2022-09-21T12:22:17.794Z,1.00
2022-09-21T12:24:47.977Z,1.42
2022-09-21T12:27:37.283Z,1.17
2022-09-21T12:30:18.953Z,1.08
2022-09-21T12:32:53.668Z,1.10
2022-09-21T12:35:23.813Z,1.00
2022-09-21T12:37:55.351Z,0.88
2022-09-21T12:40:28.089Z,0.90
2022-09-21T12:43:10.435Z,0.85
2022-09-21T12:45:48.124Z,0.88
2022-09-21T12:48:21.336Z,0.93
2022-09-21T12:50:50.871Z,0.98
2022-09-21T12:53:23.091Z,0.80
2022-09-21T12:56:00.898Z,1.00
2022-09-21T12:58:34.361Z,1.02
2022-09-21T13:01:11.876Z,0.80
2022-09-21T13:03:46.039Z,0.90
2022-09-21T13:06:23.553Z,1.00
2022-09-21T13:08:51.133Z,0.73
2022-09-21T13:11:21.708Z,0.80
2022-09-21T13:13:53.865Z,0.90
2022-09-21T13:16:31.654Z,0.80
2022-09-21T13:19:06.748Z,1.25
2022-09-21T13:21:34.462Z,0.90
2022-09-21T13:24:05.661Z,0.90
2022-09-21T13:26:44.618Z,1.10
2022-09-21T13:29:32.970Z,0.90
2022-09-21T13:32:06.388Z,0.90
2022-09-21T13:34:35.393Z,0.90
2022-09-21T13:37:21.110Z,0.80
2022-09-21T13:39:51.588Z,0.90
2022-09-21T13:42:34.436Z,0.90
2022-09-21T13:45:24.121Z,0.70
2022-09-21T13:47:53.179Z,0.80
2022-09-21T13:50:32.165Z,0.75
2022-09-21T13:53:04.293Z,0.63
2022-09-21T13:55:33.899Z,0.70
2022-09-21T13:58:06.052Z,0.90
2022-09-21T14:00:36.090Z,0.70
2022-09-21T14:03:05.360Z,0.85
2022-09-21T14:05:32.822Z,0.80
2022-09-21T14:08:05.339Z,0.73
2022-09-21T14:10:34.456Z,0.93
2022-09-21T14:13:02.639Z,0.85
2022-09-21T14:15:40.301Z,0.70
2022-09-21T14:18:16.781Z,0.70
2022-09-21T14:21:02.928Z,0.75
2022-09-21T14:23:30.297Z,0.60
2022-09-21T14:25:58.700Z,0.77
2022-09-21T14:28:35.644Z,1.02
2022-09-21T14:31:19.843Z,0.85
2022-09-21T14:33:47.379Z,0.73
2022-09-21T14:36:19.776Z,0.70
2022-09-21T14:38:54.171Z,0.70
2022-09-21T14:41:23.819Z,0.70
2022-09-21T14:43:54.849Z,0.80
2022-09-21T14:46:37.006Z,0.68
2022-09-21T14:49:23.163Z,0.70
2022-09-21T14:51:55.814Z,0.75
2022-09-21T14:54:37.477Z,0.80
2022-09-21T14:57:04.894Z,0.90
2022-09-21T14:59:38.544Z,1.00
2022-09-21T15:02:23.583Z,0.82
2022-09-21T15:05:24.287Z,0.70
2022-09-21T15:08:21.952Z,0.90
2022-09-21T15:11:01.051Z,0.68
2022-09-21T15:13:38.803Z,0.98
2022-09-21T15:16:09.144Z,0.60
2022-09-21T15:18:56.788Z,0.73
2022-09-21T15:21:26.848Z,0.70
2022-09-21T15:23:54.451Z,0.95
2022-09-21T15:26:29.941Z,0.80
2022-09-21T15:29:09.291Z,0.80
2022-09-21T15:31:39.356Z,0.70
2022-09-21T15:34:07.832Z,0.60
2022-09-21T15:36:39.361Z,0.70
2022-09-21T15:39:07.435Z,0.90
2022-09-21T15:41:45.259Z,0.70
2022-09-21T15:44:17.107Z,1.33
2022-09-21T15:46:46.854Z,0.70
2022-09-21T15:49:21.393Z,0.70
2022-09-21T15:52:01.499Z,0.60
2022-09-21T15:54:30.069Z,0.75
2022-09-21T15:56:57.409Z,0.50
2022-09-21T15:59:24.764Z,0.52
2022-09-21T16:01:56.651Z,0.50
2022-09-21T16:04:24.942Z,0.82
2022-09-21T16:07:01.147Z,0.55
2022-09-21T16:09:30.191Z,0.77
2022-09-21T16:11:57.744Z,0.80
2022-09-21T16:14:43.622Z,0.50
2022-09-21T16:17:11.558Z,0.70
2022-09-21T16:19:44.753Z,0.85
2022-09-21T16:22:17.540Z,0.60
2022-09-21T16:24:46.594Z,0.40
2022-09-21T16:27:18.569Z,0.50
2022-09-21T16:29:48.470Z,0.60
2022-09-21T16:32:18.575Z,0.82
2022-09-21T16:34:51.235Z,0.63
2022-09-21T16:37:24.311Z,0.50
2022-09-21T16:39:54.997Z,0.60
2022-09-21T16:42:23.043Z,0.50
2022-09-21T16:44:50.839Z,0.70
2022-09-21T16:47:25.822Z,0.60
2022-09-21T16:49:55.429Z,0.95
2022-09-21T16:52:23.455Z,0.75
2022-09-21T16:54:51.273Z,0.60
2022-09-21T16:57:18.758Z,0.73
2022-09-21T16:59:46.021Z,0.77
2022-09-21T17:02:14.496Z,0.85
2022-09-21T17:04:42.083Z,0.85
2022-09-21T17:07:13.579Z,0.70
2022-09-21T17:09:44.444Z,0.80
2022-09-21T17:12:13.299Z,0.70
2022-09-21T17:14:45.620Z,0.80
2022-09-21T17:17:19.847Z,0.70
2022-09-21T17:19:50.112Z,0.70
2022-09-21T17:22:18.228Z,0.52
2022-09-21T17:24:54.987Z,0.57
2022-09-21T17:27:23.349Z,0.70
2022-09-21T17:29:50.897Z,0.75
2022-09-21T17:32:21.835Z,0.50
2022-09-21T17:34:54.842Z,0.50
2022-09-21T17:37:22.280Z,0.50
2022-09-21T17:39:50.200Z,0.65
2022-09-21T17:42:19.262Z,0.50
2022-09-21T17:44:55.081Z,0.40
2022-09-21T17:47:24.920Z,0.80
2022-09-21T17:49:52.551Z,0.60
2022-09-21T17:52:42.305Z,0.60
2022-09-21T17:55:12.438Z,0.50
2022-09-21T17:57:59.204Z,0.40
2022-09-21T18:00:41.851Z,0.60
2022-09-21T18:03:29.419Z,0.90
2022-09-21T18:06:00.409Z,1.20
2022-09-21T18:08:31.613Z,1.17
2022-09-21T18:11:10.883Z,0.90
2022-09-21T18:14:05.614Z,0.60
2022-09-21T18:16:40.157Z,1.20
2022-09-21T18:19:32.909Z,1.30
2022-09-21T18:22:13.416Z,1.53
2022-09-21T18:24:40.950Z,1.10
2022-09-21T18:27:10.027Z,1.87
2022-09-21T18:29:41.419Z,1.20
2022-09-21T18:32:14.791Z,1.33
2022-09-21T18:34:57.721Z,1.40
2022-09-21T18:37:31.409Z,1.47
2022-09-21T18:40:04.074Z,1.30
2022-09-21T18:42:55.783Z,1.30
2022-09-21T18:45:25.927Z,1.33
2022-09-21T18:48:13.306Z,1.10
2022-09-21T18:50:40.662Z,1.53
2022-09-21T18:53:22.916Z,1.80
2022-09-21T18:55:50.527Z,1.87
2022-09-21T18:58:17.911Z,1.47
2022-09-21T19:00:45.364Z,1.40
2022-09-21T19:03:19.145Z,1.07
2022-09-21T19:06:19.183Z,1.07
2022-09-21T19:08:52.242Z,1.13
2022-09-21T19:11:40.691Z,1.20
2022-09-21T19:14:12.268Z,1.67
2022-09-21T19:16:47.033Z,2.43
2022-09-21T19:19:52.548Z,1.10
2022-09-21T19:22:27.093Z,1.23
2022-09-21T19:25:00.766Z,1.30
2022-09-21T19:27:41.115Z,1.20
2022-09-21T19:30:08.910Z,0.80
2022-09-21T19:32:38.004Z,1.33
2022-09-21T19:35:17.501Z,1.10
2022-09-21T19:37:45.897Z,1.20
2022-09-21T19:40:13.564Z,1.43
2022-09-21T19:42:44.141Z,1.10
2022-09-21T19:45:11.601Z,0.80
2022-09-21T19:47:48.715Z,1.07
2022-09-21T19:50:17.303Z,1.27
2022-09-21T19:52:44.834Z,1.37
2022-09-21T19:55:38.719Z,1.37
2022-09-21T19:58:25.179Z,1.10
2022-09-21T20:00:56.917Z,2.60
2022-09-21T20:03:31.322Z,1.47
2022-09-21T20:06:04.681Z,1.20
2022-09-21T20:08:41.034Z,1.33
2022-09-21T20:11:12.720Z,1.40
2022-09-21T20:13:55.277Z,1.30
2022-09-21T20:16:25.602Z,1.20
2022-09-21T20:19:02.101Z,1.40
2022-09-21T20:21:36.612Z,1.50
2022-09-21T20:24:04.779Z,1.10
2022-09-21T20:26:32.596Z,1.00
2022-09-21T20:28:59.977Z,1.00
2022-09-21T20:31:27.543Z,1.60
2022-09-21T20:33:54.927Z,1.10
2022-09-21T20:36:22.817Z,1.20
2022-09-21T20:38:50.102Z,1.00
2022-09-21T20:41:19.108Z,1.10
2022-09-21T20:43:47.832Z,1.30
2022-09-21T20:46:15.256Z,2.63
2022-09-21T20:48:43.572Z,6.10
2022-09-21T20:51:11.519Z,4.43
2022-09-21T20:53:40.216Z,3.60
2022-09-21T20:56:07.559Z,4.40
2022-09-21T20:58:35.862Z,3.40
2022-09-21T21:01:04.319Z,3.50
2022-09-21T21:03:31.768Z,3.10
2022-09-21T21:06:12.039Z,2.80
2022-09-21T21:08:39.507Z,2.90
2022-09-21T21:11:06.961Z,2.13
2022-09-21T21:13:34.373Z,1.93
2022-09-21T21:16:07.055Z,1.43
2022-09-21T21:18:37.058Z,1.53
2022-09-21T21:21:04.809Z,1.77
2022-09-21T21:23:52.492Z,1.50
2022-09-21T21:26:19.827Z,1.70
2022-09-21T21:28:47.217Z,2.10
2022-09-21T21:31:18.231Z,2.23
2022-09-21T21:33:48.671Z,2.30
2022-09-21T21:36:16.185Z,1.97
2022-09-21T21:38:43.721Z,1.50
2022-09-21T21:41:12.946Z,1.70
2022-09-21T21:43:41.181Z,1.80
2022-09-21T21:46:09.299Z,1.37
2022-09-21T21:48:37.123Z,1.43
2022-09-21T21:51:05.493Z,1.70
2022-09-21T21:53:33.999Z,1.40
2022-09-21T21:56:04.897Z,1.60
2022-09-21T21:58:32.264Z,1.20
2022-09-21T22:01:08.438Z,1.60
2022-09-21T22:03:35.937Z,1.90
2022-09-21T22:06:04.354Z,4.93
2022-09-21T22:08:32.564Z,3.50
2022-09-21T22:11:00.561Z,1.60
2022-09-21T22:13:32.980Z,1.27
2022-09-21T22:16:10.319Z,1.80
2022-09-21T22:18:37.761Z,2.10
2022-09-21T22:21:09.673Z,2.07
2022-09-21T22:23:37.441Z,2.17
2022-09-21T22:26:06.339Z,1.80
2022-09-21T22:28:34.653Z,1.40
2022-09-21T22:31:02.635Z,1.50
2022-09-21T22:33:33.575Z,1.37
2022-09-21T22:36:11.497Z,1.70
2022-09-21T22:38:42.883Z,1.80
2022-09-21T22:41:11.913Z,2.33
2022-09-21T22:43:39.609Z,2.17
2022-09-21T22:46:07.526Z,1.80
2022-09-21T22:48:35.290Z,1.60
2022-09-21T22:51:03.163Z,1.33
2022-09-21T22:53:31.642Z,1.60
2022-09-21T22:56:09.363Z,1.40
2022-09-21T22:58:39.043Z,1.40
2022-09-21T23:01:06.500Z,1.40
2022-09-21T23:03:34.003Z,1.20
2022-09-21T23:06:01.621Z,1.10
2022-09-21T23:08:28.991Z,1.40
2022-09-21T23:10:57.079Z,1.33
2022-09-21T23:13:24.448Z,1.20
2022-09-21T23:15:52.103Z,1.40
2022-09-21T23:18:19.492Z,1.23
2022-09-21T23:20:58.203Z,1.13
2022-09-21T23:23:26.091Z,1.23
2022-09-21T23:26:02.649Z,1.60
2022-09-21T23:28:30.437Z,1.90
2022-09-21T23:31:00.367Z,1.33
2022-09-21T23:33:31.667Z,1.80
2022-09-21T23:35:59.674Z,1.47
2022-09-21T23:38:29.302Z,1.23
2022-09-21T23:41:03.933Z,1.30
2022-09-21T23:43:31.329Z,1.60
2022-09-21T23:45:59.027Z,1.60
2022-09-21T23:48:26.979Z,1.23
2022-09-21T23:50:55.465Z,1.43
2022-09-21T23:53:23.039Z,1.60
2022-09-21T23:55:50.770Z,2.03
2022-09-21T23:58:18.395Z,1.50
